createdAt,value
2023-06-16T00:03:45.171Z,3.30
2023-06-16T00:06:15.429Z,3.20
2023-06-16T00:11:18.946Z,3.63
2023-06-16T00:13:46.979Z,3.50
2023-06-16T00:16:14.585Z,3.50
2023-06-16T00:18:45.036Z,3.73
2023-06-16T00:21:14.703Z,3.20
2023-06-16T00:23:42.464Z,3.47
2023-06-16T00:26:09.314Z,3.40
2023-06-16T00:31:09.810Z,3.60
2023-06-16T00:33:36.899Z,3.40
2023-06-16T00:36:04.445Z,3.43
2023-06-16T00:38:31.412Z,3.40
2023-06-16T00:40:58.321Z,3.60
2023-06-16T00:43:25.108Z,3.40
2023-06-16T00:45:52.704Z,3.30
2023-06-16T00:48:20.708Z,2.87
2023-06-16T00:50:48.148Z,3.37
2023-06-16T00:53:14.990Z,3.30
2023-06-16T00:55:42.274Z,2.80
2023-06-16T00:58:09.271Z,3.50
2023-06-16T01:00:37.574Z,3.30
2023-06-16T01:03:10.356Z,3.40
2023-06-16T01:05:37.965Z,3.33
2023-06-16T01:08:23.659Z,3.40
2023-06-16T01:24:03.392Z,3.50
2023-06-16T01:26:36.635Z,3.30
2023-06-16T01:31:41.589Z,3.33
2023-06-16T01:34:11.041Z,4.10
2023-06-16T01:36:40.727Z,3.10
2023-06-16T01:39:09.405Z,3.73
2023-06-16T01:41:38.338Z,3.70
2023-06-16T01:44:06.413Z,3.67
2023-06-16T01:46:34.452Z,3.50
2023-06-16T01:49:01.531Z,3.50
2023-06-16T01:51:28.622Z,3.60
2023-06-16T01:53:55.493Z,3.30
2023-06-16T01:58:53.699Z,3.27
2023-06-16T02:01:41.725Z,3.70
2023-06-16T02:04:16.342Z,3.40
2023-06-16T02:06:55.407Z,3.40
2023-06-16T02:09:24.549Z,3.50
2023-06-16T02:11:53.306Z,3.73
2023-06-16T02:14:20.279Z,3.43
2023-06-16T02:16:47.094Z,3.53
2023-06-16T02:19:13.947Z,3.47
2023-06-16T02:24:15.948Z,3.83
2023-06-16T02:26:42.773Z,3.47
2023-06-16T02:29:09.610Z,3.67
2023-06-16T02:31:36.447Z,3.53
2023-06-16T02:34:03.394Z,3.87
2023-06-16T02:36:30.600Z,3.43
2023-06-16T02:38:57.609Z,3.43
2023-06-16T02:41:24.363Z,3.63
2023-06-16T02:43:51.112Z,3.80
2023-06-16T02:46:17.916Z,3.30
2023-06-16T02:48:44.774Z,3.50
2023-06-16T02:51:11.664Z,3.73
2023-06-16T02:53:40.621Z,4.00
2023-06-16T02:56:08.624Z,3.80
2023-06-16T02:58:35.515Z,3.53
2023-06-16T03:01:03.034Z,3.60
2023-06-16T03:06:11.398Z,3.60
2023-06-16T03:11:09.593Z,4.03
2023-06-16T03:13:36.461Z,4.00
2023-06-16T03:16:04.761Z,3.60
2023-06-16T03:18:31.508Z,3.83
2023-06-16T03:20:59.348Z,3.67
2023-06-16T03:23:26.233Z,4.03
2023-06-16T03:25:53.911Z,3.83
2023-06-16T03:28:21.021Z,4.00
2023-06-16T03:30:47.814Z,3.70
2023-06-16T03:33:14.598Z,3.60
2023-06-16T03:35:41.526Z,4.00
2023-06-16T03:38:08.288Z,4.00
2023-06-16T03:40:35.097Z,3.93
2023-06-16T03:43:03.774Z,3.67
2023-06-16T03:45:30.679Z,3.87
2023-06-16T03:47:57.431Z,3.73
2023-06-16T03:50:24.228Z,3.57
2023-06-16T03:53:06.022Z,3.70
2023-06-16T03:55:37.699Z,4.10
2023-06-16T03:58:04.518Z,3.90
2023-06-16T04:00:31.368Z,4.00
2023-06-16T04:05:29.346Z,3.90
2023-06-16T04:07:57.319Z,4.30
2023-06-16T04:10:24.269Z,4.00
2023-06-16T04:12:51.018Z,3.93
2023-06-16T04:15:17.739Z,4.23
2023-06-16T04:20:16.068Z,3.60
2023-06-16T04:22:43.676Z,3.70
2023-06-16T04:25:10.690Z,3.90
2023-06-16T04:27:39.040Z,4.20
2023-06-16T04:30:08.098Z,3.70
2023-06-16T04:32:37.598Z,3.83
2023-06-16T04:35:05.999Z,3.90
2023-06-16T04:37:34.636Z,4.10
2023-06-16T04:40:03.206Z,4.10
2023-06-16T04:42:31.406Z,3.80
2023-06-16T04:44:59.483Z,4.20
2023-06-16T04:47:26.437Z,4.03
2023-06-16T04:49:53.387Z,3.90
2023-06-16T04:52:20.199Z,4.13
2023-06-16T04:54:47.498Z,4.10
2023-06-16T04:57:14.798Z,4.17
2023-06-16T04:59:41.645Z,4.30
2023-06-16T05:02:08.583Z,4.03
2023-06-16T05:07:06.891Z,4.03
2023-06-16T05:09:33.799Z,4.57
2023-06-16T05:12:00.904Z,4.20
2023-06-16T05:14:27.657Z,3.97
2023-06-16T05:16:54.479Z,4.33
2023-06-16T05:19:21.533Z,3.80
2023-06-16T05:21:48.436Z,4.03
2023-06-16T05:24:15.356Z,3.73
2023-06-16T05:26:42.756Z,3.63
2023-06-16T05:29:09.704Z,3.80
2023-06-16T05:31:37.105Z,4.23
2023-06-16T05:36:37.411Z,3.83
2023-06-16T05:39:04.865Z,4.90
2023-06-16T05:41:31.889Z,5.87
2023-06-16T05:43:59.017Z,4.00
2023-06-16T05:46:25.773Z,4.10
2023-06-16T05:48:53.709Z,3.90
2023-06-16T05:51:20.506Z,4.03
2023-06-16T05:53:47.306Z,3.97
2023-06-16T05:56:16.465Z,4.07
2023-06-16T05:58:43.223Z,3.88
2023-06-16T06:01:14.604Z,3.85
2023-06-16T06:03:46.800Z,3.47
2023-06-16T06:08:44.983Z,4.18
2023-06-16T06:11:12.784Z,3.95
2023-06-16T06:13:39.518Z,3.80
2023-06-16T06:16:06.322Z,3.83
2023-06-16T06:18:33.171Z,3.80
2023-06-16T06:20:59.976Z,3.78
2023-06-16T06:23:27.002Z,3.65
2023-06-16T06:25:53.752Z,3.42
2023-06-16T06:28:20.654Z,3.72
2023-06-16T06:30:47.494Z,3.53
2023-06-16T06:33:14.237Z,3.40
2023-06-16T06:38:13.997Z,4.10
2023-06-16T06:43:19.004Z,3.97
2023-06-16T06:45:46.876Z,3.88
2023-06-16T06:48:13.754Z,3.40
2023-06-16T06:53:19.970Z,3.70
2023-06-16T06:55:47.062Z,3.85
2023-06-16T07:00:46.462Z,3.75
2023-06-16T07:03:14.021Z,4.07
2023-06-16T07:08:12.125Z,3.85
2023-06-16T07:10:38.921Z,3.80
2023-06-16T07:15:45.416Z,3.97
2023-06-16T07:18:12.352Z,3.80
2023-06-16T07:20:39.249Z,3.92
2023-06-16T07:23:06.377Z,3.60
2023-06-16T07:25:37.496Z,3.42
2023-06-16T07:28:08.843Z,3.80
2023-06-16T07:30:35.784Z,3.83
2023-06-16T07:33:02.602Z,3.80
2023-06-16T07:35:29.816Z,4.00
2023-06-16T07:37:56.718Z,3.47
2023-06-16T07:40:23.486Z,3.97
2023-06-16T07:42:50.613Z,3.83
2023-06-16T07:45:19.010Z,4.00
2023-06-16T07:47:47.354Z,3.50
2023-06-16T07:50:16.195Z,3.58
2023-06-16T07:52:43.344Z,3.55
2023-06-16T07:55:12.140Z,3.60
2023-06-16T08:00:19.909Z,3.60
2023-06-16T08:02:47.167Z,3.50
2023-06-16T08:05:17.896Z,3.22
2023-06-16T08:07:45.256Z,3.50
2023-06-16T08:10:15.646Z,3.40
2023-06-16T08:12:45.329Z,3.28
2023-06-16T08:17:44.809Z,3.42
2023-06-16T08:20:12.428Z,3.55
2023-06-16T08:22:39.255Z,3.25
2023-06-16T08:25:06.766Z,3.20
2023-06-16T08:27:33.560Z,3.90
2023-06-16T08:30:00.373Z,4.10
2023-06-16T08:32:27.266Z,3.40
2023-06-16T08:34:54.089Z,3.38
2023-06-16T08:37:29.597Z,3.60
2023-06-16T08:39:57.441Z,3.78
2023-06-16T08:42:24.877Z,3.33
2023-06-16T08:44:55.360Z,3.25
2023-06-16T08:47:22.206Z,3.10
2023-06-16T08:49:53.856Z,3.25
2023-06-16T08:52:34.448Z,3.33
2023-06-16T08:55:10.848Z,3.10
2023-06-16T08:57:45.517Z,3.22
2023-06-16T09:00:12.902Z,2.85
2023-06-16T09:02:42.133Z,3.75
2023-06-16T09:05:10.940Z,3.22
2023-06-16T09:07:43.418Z,2.75
2023-06-16T09:10:10.375Z,3.03
2023-06-16T09:12:37.464Z,2.42
2023-06-16T09:17:41.914Z,2.90
2023-06-16T09:20:19.578Z,2.70
2023-06-16T09:22:51.234Z,2.80
2023-06-16T09:25:18.590Z,3.03
2023-06-16T09:27:50.657Z,2.50
2023-06-16T09:30:22.216Z,3.03
2023-06-16T09:32:51.821Z,2.60
2023-06-16T09:35:23.827Z,2.70
2023-06-16T09:37:53.152Z,2.90
2023-06-16T09:40:21.662Z,2.83
2023-06-16T09:42:52.032Z,2.78
2023-06-16T09:45:21.514Z,2.78
2023-06-16T09:47:50.090Z,2.75
2023-06-16T09:50:19.502Z,2.40
2023-06-16T09:52:48.441Z,2.88
2023-06-16T09:55:16.364Z,3.08
2023-06-16T09:57:45.324Z,2.72
2023-06-16T10:00:18.430Z,3.13
2023-06-16T10:02:54.558Z,2.50
2023-06-16T10:05:23.542Z,2.88
2023-06-16T10:07:52.526Z,3.00
2023-06-16T10:13:06.354Z,2.75
2023-06-16T10:15:38.588Z,3.10
2023-06-16T10:20:42.080Z,2.65
2023-06-16T10:23:09.741Z,2.78
2023-06-16T10:25:37.090Z,3.15
2023-06-16T10:28:09.491Z,2.92
2023-06-16T10:30:37.733Z,2.80
2023-06-16T10:33:17.628Z,2.97
2023-06-16T10:36:04.230Z,3.22
2023-06-16T10:38:41.693Z,2.60
2023-06-16T10:41:13.695Z,2.97
2023-06-16T10:48:58.853Z,3.20
2023-06-16T10:51:42.800Z,2.80
2023-06-16T10:54:10.609Z,3.05
2023-06-16T11:00:14.109Z,4.13
2023-06-16T11:02:52.545Z,3.10
2023-06-16T11:05:24.050Z,2.88
2023-06-16T11:08:02.640Z,2.95
2023-06-16T11:10:29.427Z,3.03
2023-06-16T11:15:27.716Z,2.70
2023-06-16T11:17:54.538Z,3.10
2023-06-16T11:20:22.097Z,3.00
2023-06-16T11:22:51.060Z,2.70
2023-06-16T11:25:17.925Z,2.90
2023-06-16T11:27:44.798Z,2.88
2023-06-16T11:30:12.426Z,2.65
2023-06-16T11:35:13.023Z,2.63
2023-06-16T11:37:52.595Z,3.03
2023-06-16T11:40:24.225Z,2.65
2023-06-16T11:42:57.809Z,3.00
2023-06-16T11:45:28.239Z,2.67
2023-06-16T11:47:57.380Z,2.78
2023-06-16T11:50:24.819Z,2.72
2023-06-16T11:52:53.370Z,2.70
2023-06-16T11:55:21.079Z,3.15
2023-06-16T11:57:48.004Z,3.55
2023-06-16T12:00:16.252Z,2.80
2023-06-16T12:02:47.750Z,3.33
2023-06-16T12:05:21.743Z,3.35
2023-06-16T12:07:49.662Z,3.90
2023-06-16T12:10:17.168Z,3.03
2023-06-16T12:12:45.024Z,3.13
2023-06-16T12:15:17.285Z,3.58
2023-06-16T12:17:45.079Z,3.05
2023-06-16T12:20:13.828Z,3.20
2023-06-16T12:22:41.551Z,3.08
2023-06-16T12:25:12.839Z,3.35
2023-06-16T12:27:45.085Z,3.30
2023-06-16T12:30:13.597Z,2.92
2023-06-16T12:32:42.568Z,3.10
2023-06-16T12:35:10.447Z,3.10
2023-06-16T12:37:41.219Z,3.13
2023-06-16T12:40:12.383Z,3.00
2023-06-16T12:42:39.801Z,3.20
2023-06-16T12:45:07.749Z,3.35
2023-06-16T12:47:36.164Z,2.92
2023-06-16T12:50:05.980Z,3.13
2023-06-16T12:52:32.984Z,2.92
2023-06-16T12:55:01.378Z,2.97
2023-06-16T12:57:28.944Z,3.28
2023-06-16T12:59:56.274Z,3.67
2023-06-16T13:02:24.045Z,3.47
2023-06-16T13:04:51.045Z,3.13
2023-06-16T13:09:55.675Z,3.40
2023-06-16T13:12:22.442Z,3.40
2023-06-16T13:14:49.344Z,3.42
2023-06-16T13:17:16.150Z,3.45
2023-06-16T13:19:42.898Z,3.60
2023-06-16T13:22:09.734Z,3.13
2023-06-16T13:24:38.535Z,3.28
2023-06-16T13:29:36.617Z,3.28
2023-06-16T13:32:03.462Z,3.60
2023-06-16T13:34:30.250Z,3.17
2023-06-16T13:36:57.904Z,3.42
2023-06-16T13:39:24.913Z,3.10
2023-06-16T13:41:51.868Z,3.25
2023-06-16T13:44:18.621Z,3.50
2023-06-16T13:46:45.427Z,3.25
2023-06-16T13:49:13.284Z,3.20
2023-06-16T13:54:15.932Z,3.42
2023-06-16T13:56:43.146Z,3.17
2023-06-16T13:59:10.050Z,3.58
2023-06-16T14:04:08.489Z,3.50
2023-06-16T14:06:35.204Z,3.63
2023-06-16T14:09:01.979Z,3.72
2023-06-16T14:11:29.881Z,3.63
2023-06-16T14:16:27.891Z,3.35
2023-06-16T14:18:56.244Z,3.80
2023-06-16T14:21:22.996Z,3.55
2023-06-16T14:23:52.217Z,3.08
2023-06-16T14:26:19.291Z,3.40
2023-06-16T14:28:46.200Z,3.40
2023-06-16T14:31:13.017Z,3.08
2023-06-16T14:33:39.731Z,3.50
2023-06-16T14:36:06.724Z,3.60
2023-06-16T14:38:33.872Z,3.20
2023-06-16T14:41:00.704Z,3.60
2023-06-16T14:43:27.479Z,4.18
2023-06-16T14:45:54.216Z,3.50
2023-06-16T14:48:20.982Z,3.50
2023-06-16T14:50:48.386Z,3.53
2023-06-16T14:53:15.207Z,3.85
2023-06-16T14:55:42.070Z,3.42
2023-06-16T14:58:08.817Z,3.35
2023-06-16T15:00:35.527Z,3.58
2023-06-16T15:03:02.441Z,3.45
2023-06-16T15:05:29.262Z,3.40
2023-06-16T15:07:56.088Z,3.55
2023-06-16T15:10:23.060Z,3.42
2023-06-16T15:12:50.144Z,3.55
2023-06-16T15:15:17.048Z,3.65
2023-06-16T15:17:43.975Z,3.50
2023-06-16T15:20:11.490Z,3.80
2023-06-16T15:22:38.304Z,3.65
2023-06-16T15:25:05.773Z,3.33
2023-06-16T15:27:32.569Z,3.50
2023-06-16T15:29:59.286Z,3.40
2023-06-16T15:32:26.100Z,3.35
2023-06-16T15:34:52.888Z,3.38
2023-06-16T15:37:19.777Z,3.80
2023-06-16T15:39:46.610Z,3.47
2023-06-16T15:42:13.460Z,3.28
2023-06-16T15:44:41.061Z,3.45
2023-06-16T15:47:07.952Z,3.22
2023-06-16T15:49:34.846Z,4.13
2023-06-16T15:52:02.658Z,3.17
2023-06-16T15:57:01.457Z,3.45
2023-06-16T15:59:28.329Z,3.55
2023-06-16T16:01:55.134Z,3.53
2023-06-16T16:04:22.051Z,3.08
2023-06-16T16:06:49.031Z,3.28
2023-06-16T16:11:53.983Z,3.50
2023-06-16T16:14:20.853Z,3.13
2023-06-16T16:16:47.963Z,3.08
2023-06-16T16:19:14.876Z,3.25
2023-06-16T16:21:41.742Z,3.30
2023-06-16T16:24:10.837Z,3.38
2023-06-16T16:26:37.874Z,3.20
2023-06-16T16:29:04.808Z,3.38
2023-06-16T16:31:31.596Z,4.03
2023-06-16T16:33:58.374Z,3.90
2023-06-16T16:36:25.277Z,3.40
2023-06-16T16:38:52.058Z,3.40
2023-06-16T16:41:18.835Z,3.63
2023-06-16T16:43:45.743Z,3.88
2023-06-16T16:48:50.496Z,3.47
2023-06-16T16:51:17.240Z,3.72
2023-06-16T16:58:54.705Z,3.20
2023-06-16T17:01:21.626Z,4.18
2023-06-16T17:03:48.554Z,4.00
2023-06-16T17:06:15.703Z,3.60
2023-06-16T17:08:42.461Z,3.47
2023-06-16T17:11:09.318Z,3.53
2023-06-16T17:13:36.413Z,3.60
2023-06-16T17:16:04.218Z,3.53
2023-06-16T17:18:31.031Z,3.88
2023-06-16T17:23:31.079Z,3.50
2023-06-16T17:25:57.818Z,3.30
2023-06-16T17:30:56.106Z,3.80
2023-06-16T17:33:23.095Z,3.63
2023-06-16T17:35:49.845Z,4.20
2023-06-16T17:38:16.620Z,4.15
2023-06-16T17:40:43.405Z,4.00
2023-06-16T17:43:10.214Z,4.00
2023-06-16T17:45:36.997Z,3.25
2023-06-16T17:48:03.977Z,3.95
2023-06-16T17:50:30.927Z,3.40
2023-06-16T17:53:02.475Z,3.30
2023-06-16T17:55:29.267Z,3.72
2023-06-16T17:57:56.100Z,3.65
2023-06-16T18:00:23.169Z,3.35
2023-06-16T18:02:50.291Z,3.50
2023-06-16T18:05:17.245Z,3.58
2023-06-16T18:07:43.966Z,3.30
2023-06-16T18:10:11.247Z,3.33
2023-06-16T18:12:37.975Z,3.20
2023-06-16T18:15:05.392Z,3.47
2023-06-16T18:17:32.668Z,3.50
2023-06-16T18:19:59.555Z,3.20
2023-06-16T18:22:26.380Z,3.20
2023-06-16T18:24:53.275Z,3.28
2023-06-16T18:27:20.066Z,3.00
2023-06-16T18:29:46.808Z,3.00
2023-06-16T18:32:14.865Z,2.85
2023-06-16T18:34:43.036Z,3.10
2023-06-16T18:37:09.904Z,3.13
2023-06-16T18:39:36.716Z,2.97
2023-06-16T18:42:03.906Z,3.20
2023-06-16T18:44:31.018Z,2.90
2023-06-16T18:46:58.289Z,3.10
2023-06-16T18:49:24.981Z,2.80
2023-06-16T18:51:51.849Z,2.97
2023-06-16T18:54:19.500Z,2.90
2023-06-16T18:56:46.428Z,3.38
2023-06-16T18:59:13.194Z,3.35
2023-06-16T19:01:41.771Z,3.58
2023-06-16T19:04:08.708Z,4.60
2023-06-16T19:06:35.561Z,3.45
2023-06-16T19:09:02.329Z,2.90
2023-06-16T19:11:29.195Z,3.25
2023-06-16T19:13:56.197Z,3.10
2023-06-16T19:16:23.013Z,3.00
2023-06-16T19:18:49.806Z,2.88
2023-06-16T19:21:16.766Z,2.72
2023-06-16T19:23:44.629Z,3.15
2023-06-16T19:26:11.992Z,2.97
2023-06-16T19:28:47.569Z,3.03
2023-06-16T19:31:16.133Z,3.05
2023-06-16T19:33:43.198Z,2.90
2023-06-16T19:36:10.065Z,3.10
2023-06-16T19:38:36.927Z,3.40
2023-06-16T19:41:03.839Z,3.35
2023-06-16T19:43:30.785Z,3.30
2023-06-16T19:45:57.488Z,3.10
2023-06-16T19:48:24.248Z,3.53
2023-06-16T19:53:29.533Z,3.00
2023-06-16T19:55:58.313Z,2.97
2023-06-16T19:58:25.133Z,3.17
2023-06-16T20:00:51.894Z,3.10
2023-06-16T20:03:19.246Z,3.50
2023-06-16T20:05:46.302Z,3.38
2023-06-16T20:10:45.376Z,3.30
2023-06-16T20:13:12.408Z,4.03
2023-06-16T20:15:39.294Z,3.50
2023-06-16T20:18:06.203Z,3.30
2023-06-16T20:23:04.906Z,3.45
2023-06-16T20:25:31.678Z,3.35
2023-06-16T20:30:36.017Z,3.50
2023-06-16T20:33:03.017Z,3.22
2023-06-16T20:35:29.991Z,3.22
2023-06-16T20:37:58.167Z,3.20
2023-06-16T20:40:28.499Z,3.40
2023-06-16T20:42:57.629Z,3.25
2023-06-16T20:45:26.244Z,3.45
2023-06-16T20:47:54.646Z,3.60
2023-06-16T20:50:24.224Z,3.20
2023-06-16T20:52:52.379Z,3.65
2023-06-16T20:55:19.632Z,3.40
2023-06-16T20:57:47.935Z,4.30
2023-06-16T21:00:15.568Z,4.60
2023-06-16T21:02:42.596Z,5.78
2023-06-16T21:05:13.332Z,3.90
2023-06-16T21:07:45.673Z,4.45
2023-06-16T21:10:13.888Z,4.05
2023-06-16T21:12:41.189Z,3.85
2023-06-16T21:15:08.954Z,3.80
2023-06-16T21:17:36.476Z,4.47
2023-06-16T21:20:06.199Z,3.78
2023-06-16T21:22:33.284Z,4.88
2023-06-16T21:25:00.033Z,4.40
2023-06-16T21:27:29.748Z,4.53
2023-06-16T21:29:58.922Z,4.50
2023-06-16T21:32:28.159Z,4.22
2023-06-16T21:34:56.725Z,3.78
2023-06-16T21:37:25.699Z,3.95
2023-06-16T21:40:12.074Z,3.97
2023-06-16T21:42:43.696Z,3.70
2023-06-16T21:45:13.522Z,3.75
2023-06-16T21:47:41.128Z,3.63
2023-06-16T21:50:09.163Z,3.83
2023-06-16T21:52:36.613Z,3.70
2023-06-16T21:55:04.933Z,3.72
2023-06-16T21:57:32.351Z,3.78
2023-06-16T21:59:59.870Z,3.63
2023-06-16T22:02:27.699Z,3.65
2023-06-16T22:04:54.589Z,3.83
2023-06-16T22:07:22.578Z,3.80
2023-06-16T22:09:52.232Z,4.18
2023-06-16T22:12:19.977Z,3.72
2023-06-16T22:14:47.404Z,3.90
2023-06-16T22:17:15.252Z,3.83
2023-06-16T22:19:43.164Z,3.90
2023-06-16T22:22:11.297Z,3.60
2023-06-16T22:24:40.189Z,3.58
2023-06-16T22:27:20.446Z,3.53
2023-06-16T22:29:48.890Z,3.53
2023-06-16T22:32:15.737Z,3.70
2023-06-16T22:34:42.590Z,3.70
2023-06-16T22:37:12.064Z,3.55
2023-06-16T22:39:40.835Z,4.00
2023-06-16T22:42:07.771Z,4.03
2023-06-16T22:44:34.493Z,3.75
2023-06-16T22:47:02.909Z,3.78
2023-06-16T22:49:30.040Z,3.83
2023-06-16T22:51:58.788Z,3.92
2023-06-16T22:54:26.998Z,3.53
2023-06-16T22:59:25.922Z,3.92
2023-06-16T23:01:52.906Z,4.03
2023-06-16T23:04:20.100Z,4.15
2023-06-16T23:06:46.937Z,4.25
2023-06-16T23:09:14.068Z,3.70
2023-06-16T23:14:19.799Z,3.92
2023-06-16T23:16:47.710Z,4.20
2023-06-16T23:19:14.742Z,4.20
2023-06-16T23:21:44.488Z,3.75
2023-06-16T23:24:12.302Z,3.90
2023-06-16T23:26:45.765Z,4.00
2023-06-16T23:29:19.041Z,3.80
2023-06-16T23:34:24.473Z,3.70
2023-06-16T23:36:51.514Z,4.28
2023-06-16T23:39:18.482Z,3.85
2023-06-16T23:41:45.243Z,3.75
2023-06-16T23:44:12.123Z,4.00
2023-06-16T23:46:38.990Z,3.65
2023-06-16T23:49:05.914Z,3.95
2023-06-16T23:51:32.756Z,3.60
2023-06-16T23:53:59.537Z,3.85
2023-06-16T23:56:26.510Z,3.83
2023-06-16T23:58:53.319Z,3.63
